Time;durP1;ratioP1;P1;durP2;ratioP2;P2;SDS_P1;SDS_P2;PMS_P1;PMS_P2;Temp;Humidity;BMP_temperature;BMP_pressure;BME280_temperature;BME280_humidity;BME280_pressure;Samples;Min_cycle;Max_cycle;Signal;HPM_P1;HPM_P2
2023/07/30 00:02:18;;;;;;;7.97;4.45;;;;;;;;;;4993418;28;20390;-47
2023/07/30 00:04:45;;;;;;;10.73;4.60;;;;;;;;;;4987100;28;20287;-49
2023/07/30 00:07:11;;;;;;;9.52;4.32;;;;;;;;;;4985472;28;20046;-48
2023/07/30 00:09:36;;;;;;;8.25;4.70;;;;;;;;;;4981640;28;20106;-47
2023/07/30 00:12:02;;;;;;;7.10;4.20;;;;;;;;;;4991814;28;20034;-45
2023/07/30 00:14:28;;;;;;;9.88;4.47;;;;;;;;;;4995838;28;20037;-49
2023/07/30 00:16:53;;;;;;;6.15;4.38;;;;;;;;;;4995495;28;20716;-47
2023/07/30 00:19:19;;;;;;;11.52;4.55;;;;;;;;;;4994211;28;20105;-45
2023/07/30 00:21:46;;;;;;;11.93;4.63;;;;;;;;;;4986744;28;20065;-48
2023/07/30 00:24:13;;;;;;;7.90;4.40;;;;;;;;;;4994029;28;20106;-46
2023/07/30 00:26:38;;;;;;;6.28;4.53;;;;;;;;;;4993715;28;20053;-50
2023/07/30 00:29:04;;;;;;;8.60;4.90;;;;;;;;;;4970628;28;20023;-45
2023/07/30 00:31:29;;;;;;;7.03;4.47;;;;;;;;;;4991149;28;20039;-47
2023/07/30 00:33:55;;;;;;;11.82;4.40;;;;;;;;;;5001276;28;20078;-45
2023/07/30 00:36:20;;;;;;;6.15;4.22;;;;;;;;;;4991034;28;20051;-45
2023/07/30 00:38:45;;;;;;;6.38;4.10;;;;;;;;;;4994402;28;20081;-48
2023/07/30 00:41:11;;;;;;;14.20;5.10;;;;;;;;;;4995692;28;20625;-46
2023/07/30 00:43:36;;;;;;;7.05;4.30;;;;;;;;;;4990205;28;20054;-44
2023/07/30 00:46:02;;;;;;;6.78;4.13;;;;;;;;;;4986227;28;20735;-48
2023/07/30 00:48:29;;;;;;;8.40;4.50;;;;;;;;;;4993988;28;20496;-47
2023/07/30 00:50:55;;;;;;;6.53;4.55;;;;;;;;;;4995057;28;20057;-46
2023/07/30 00:53:22;;;;;;;8.50;4.50;;;;;;;;;;4978883;28;20022;-45
2023/07/30 00:55:48;;;;;;;6.97;4.30;;;;;;;;;;4989125;28;20035;-45
2023/07/30 00:58:13;;;;;;;11.73;5.03;;;;;;;;;;4978677;28;20035;-45
2023/07/30 01:00:40;;;;;;;10.95;4.35;;;;;;;;;;4991759;28;20041;-46
2023/07/30 01:03:05;;;;;;;9.15;4.40;;;;;;;;;;4995128;28;20974;-46
2023/07/30 01:05:31;;;;;;;7.28;4.40;;;;;;;;;;4992906;28;20585;-45
2023/07/30 01:07:57;;;;;;;7.85;4.60;;;;;;;;;;4990900;28;20056;-45
2023/07/30 01:10:23;;;;;;;9.40;4.93;;;;;;;;;;4994847;28;20045;-44
2023/07/30 01:12:48;;;;;;;7.35;4.47;;;;;;;;;;4996179;28;20026;-45
2023/07/30 01:15:14;;;;;;;9.63;4.47;;;;;;;;;;4995361;28;20026;-47
2023/07/30 01:17:40;;;;;;;9.65;4.25;;;;;;;;;;4987152;28;20034;-47
2023/07/30 01:20:06;;;;;;;7.95;5.30;;;;;;;;;;4988644;28;20045;-46
2023/07/30 01:22:31;;;;;;;12.68;4.65;;;;;;;;;;4980148;28;20034;-45
2023/07/30 01:24:57;;;;;;;8.32;4.65;;;;;;;;;;4994573;28;20026;-46
2023/07/30 01:27:28;;;;;;;7.13;4.55;;;;;;;;;;4982619;28;20053;-45
2023/07/30 01:30:06;;;;;;;10.30;4.40;;;;;;;;;;4979151;28;20030;-45
2023/07/30 01:32:33;;;;;;;9.35;4.43;;;;;;;;;;4995965;28;20048;-46
2023/07/30 01:35:01;;;;;;;9.35;4.70;;;;;;;;;;4979051;28;20515;-46
2023/07/30 01:37:29;;;;;;;8.65;4.57;;;;;;;;;;4993557;28;20038;-48
2023/07/30 01:39:55;;;;;;;7.95;4.30;;;;;;;;;;4991686;28;20026;-50
2023/07/30 01:42:20;;;;;;;8.32;4.32;;;;;;;;;;4994919;28;20035;-49
2023/07/30 01:44:46;;;;;;;10.13;4.35;;;;;;;;;;4989324;28;20511;-47
2023/07/30 01:47:11;;;;;;;5.63;4.00;;;;;;;;;;4997123;28;20439;-47
2023/07/30 01:49:36;;;;;;;7.57;4.45;;;;;;;;;;4977568;28;20476;-47
2023/07/30 01:52:02;;;;;;;8.98;4.88;;;;;;;;;;4993763;28;20121;-45
2023/07/30 01:54:27;;;;;;;6.28;4.25;;;;;;;;;;4989679;28;20042;-47
2023/07/30 01:56:54;;;;;;;7.78;5.05;;;;;;;;;;4994078;28;20065;-45
2023/07/30 01:59:19;;;;;;;9.10;4.85;;;;;;;;;;4996883;28;20754;-50
2023/07/30 02:01:45;;;;;;;6.30;4.38;;;;;;;;;;4989461;28;20069;-46
2023/07/30 02:04:10;;;;;;;7.63;4.53;;;;;;;;;;4997400;28;20049;-45
2023/07/30 02:06:36;;;;;;;10.68;4.70;;;;;;;;;;4998807;28;20042;-46
2023/07/30 02:09:02;;;;;;;8.93;4.78;;;;;;;;;;4996447;28;20065;-47
2023/07/30 02:11:28;;;;;;;7.45;4.05;;;;;;;;;;4980014;28;20082;-47
2023/07/30 02:13:53;;;;;;;7.32;4.50;;;;;;;;;;4993223;28;20031;-46
2023/07/30 02:16:19;;;;;;;10.02;4.90;;;;;;;;;;4996269;28;20057;-45
2023/07/30 02:18:44;;;;;;;4.82;4.05;;;;;;;;;;4998738;28;20022;-48
2023/07/30 02:21:10;;;;;;;7.85;4.40;;;;;;;;;;4990832;28;20050;-45
2023/07/30 02:23:35;;;;;;;7.75;4.63;;;;;;;;;;4997349;28;20088;-44
2023/07/30 02:26:01;;;;;;;9.00;4.80;;;;;;;;;;4989457;28;20045;-44
2023/07/30 02:28:26;;;;;;;8.07;4.93;;;;;;;;;;4997284;28;20033;-45
2023/07/30 02:30:52;;;;;;;8.02;4.60;;;;;;;;;;4998445;28;20089;-46
2023/07/30 02:33:17;;;;;;;11.00;4.72;;;;;;;;;;4985778;28;20033;-46
2023/07/30 02:35:43;;;;;;;10.50;4.55;;;;;;;;;;4991451;28;20079;-45
2023/07/30 02:38:09;;;;;;;9.98;5.00;;;;;;;;;;4982536;28;20045;-48
2023/07/30 02:40:34;;;;;;;9.98;4.78;;;;;;;;;;4998442;28;20042;-45
2023/07/30 02:43:00;;;;;;;7.57;4.70;;;;;;;;;;4996445;28;20557;-47
2023/07/30 02:45:25;;;;;;;10.05;4.80;;;;;;;;;;4980065;28;20524;-44
2023/07/30 02:47:51;;;;;;;6.70;4.50;;;;;;;;;;5005281;28;20081;-44
2023/07/30 02:50:16;;;;;;;9.43;4.85;;;;;;;;;;4988343;28;20035;-48
2023/07/30 02:52:41;;;;;;;8.27;4.97;;;;;;;;;;5012852;28;20030;-45
2023/07/30 02:55:07;;;;;;;10.93;4.90;;;;;;;;;;4986469;28;20539;-44
2023/07/30 02:57:33;;;;;;;5.47;4.57;;;;;;;;;;4991698;28;20441;-45
2023/07/30 02:59:58;;;;;;;9.65;4.65;;;;;;;;;;4983656;28;20023;-47
2023/07/30 03:02:23;;;;;;;7.82;4.97;;;;;;;;;;5006689;28;20540;-45
2023/07/30 03:04:49;;;;;;;6.50;4.80;;;;;;;;;;4992728;28;20447;-48
2023/07/30 03:07:14;;;;;;;7.68;4.95;;;;;;;;;;4990129;28;20080;-47
2023/07/30 03:09:40;;;;;;;9.68;5.63;;;;;;;;;;4992026;28;20049;-43
2023/07/30 03:12:06;;;;;;;12.68;5.35;;;;;;;;;;4996575;28;20049;-45
2023/07/30 03:14:31;;;;;;;16.30;6.53;;;;;;;;;;4998490;28;20089;-46
2023/07/30 03:16:56;;;;;;;15.88;6.30;;;;;;;;;;4994863;28;20530;-45
2023/07/30 03:19:22;;;;;;;5.90;5.22;;;;;;;;;;4972531;28;20372;-49
2023/07/30 03:21:47;;;;;;;9.60;5.43;;;;;;;;;;4993365;28;20445;-46
2023/07/30 03:24:12;;;;;;;10.38;5.35;;;;;;;;;;4992428;28;20037;-46
2023/07/30 03:26:38;;;;;;;12.77;5.60;;;;;;;;;;4985836;28;20973;-45
2023/07/30 03:29:03;;;;;;;8.82;6.38;;;;;;;;;;4990492;28;20042;-44
2023/07/30 03:31:29;;;;;;;10.77;8.35;;;;;;;;;;4987854;28;21243;-45
2023/07/30 03:33:54;;;;;;;11.68;7.63;;;;;;;;;;4997118;28;20088;-47
2023/07/30 03:36:20;;;;;;;13.45;7.38;;;;;;;;;;4997124;28;20057;-46
2023/07/30 03:38:45;;;;;;;12.65;8.35;;;;;;;;;;4995517;28;20499;-49
2023/07/30 03:41:11;;;;;;;15.80;8.93;;;;;;;;;;4990459;28;20105;-45
2023/07/30 03:43:37;;;;;;;10.63;8.23;;;;;;;;;;4992414;28;20034;-45
2023/07/30 03:46:02;;;;;;;11.30;8.60;;;;;;;;;;4990867;28;20074;-44
2023/07/30 03:48:28;;;;;;;13.32;8.13;;;;;;;;;;4987654;28;20093;-46
2023/07/30 03:50:54;;;;;;;14.55;10.00;;;;;;;;;;4993219;28;20039;-44
2023/07/30 03:53:20;;;;;;;15.80;9.13;;;;;;;;;;4991326;28;20093;-44
2023/07/30 03:55:45;;;;;;;12.45;9.38;;;;;;;;;;4979833;28;20046;-47
2023/07/30 03:58:10;;;;;;;12.63;9.32;;;;;;;;;;4998229;28;20247;-45
2023/07/30 04:00:36;;;;;;;14.63;9.30;;;;;;;;;;4987046;28;20724;-47
2023/07/30 04:03:02;;;;;;;11.27;8.35;;;;;;;;;;4997931;28;20125;-45
2023/07/30 04:05:27;;;;;;;15.48;8.38;;;;;;;;;;4995137;28;20069;-44
2023/07/30 04:07:52;;;;;;;11.15;8.25;;;;;;;;;;4990589;28;20551;-45
2023/07/30 04:10:18;;;;;;;11.25;8.68;;;;;;;;;;4993680;28;20285;-44
2023/07/30 04:12:44;;;;;;;13.05;9.32;;;;;;;;;;4995886;28;20038;-45
2023/07/30 04:15:09;;;;;;;14.80;8.38;;;;;;;;;;4993036;28;20070;-46
2023/07/30 04:17:37;;;;;;;12.82;8.82;;;;;;;;;;4996265;28;20026;-49
2023/07/30 04:20:04;;;;;;;16.17;8.65;;;;;;;;;;4993712;28;20077;-45
2023/07/30 04:22:29;;;;;;;10.48;7.97;;;;;;;;;;4993121;28;20548;-47
2023/07/30 04:24:55;;;;;;;14.85;7.55;;;;;;;;;;4989062;28;20038;-45
2023/07/30 04:27:20;;;;;;;8.30;7.43;;;;;;;;;;4996078;28;20025;-46
2023/07/30 04:29:45;;;;;;;15.10;7.80;;;;;;;;;;4994440;28;20065;-45
2023/07/30 04:32:11;;;;;;;12.57;6.60;;;;;;;;;;4995938;28;20395;-46
2023/07/30 04:34:36;;;;;;;10.27;6.38;;;;;;;;;;4990387;28;20397;-45
2023/07/30 04:37:02;;;;;;;8.27;6.20;;;;;;;;;;4995189;28;20038;-45
2023/07/30 04:39:28;;;;;;;10.57;5.57;;;;;;;;;;4981982;28;20524;-44
2023/07/30 04:41:53;;;;;;;9.98;5.10;;;;;;;;;;4990995;28;20036;-47
2023/07/30 04:44:18;;;;;;;7.72;4.43;;;;;;;;;;4995830;28;20084;-46
2023/07/30 04:46:44;;;;;;;7.07;4.22;;;;;;;;;;4995622;28;20038;-49
2023/07/30 04:49:09;;;;;;;5.95;4.25;;;;;;;;;;4990714;28;20077;-44
2023/07/30 04:51:35;;;;;;;4.82;4.18;;;;;;;;;;4988395;28;20050;-48
2023/07/30 04:54:00;;;;;;;5.13;4.20;;;;;;;;;;4963466;28;20100;-46
2023/07/30 04:56:26;;;;;;;5.55;4.10;;;;;;;;;;5005259;28;20034;-45
2023/07/30 04:58:53;;;;;;;5.68;3.95;;;;;;;;;;4991401;28;20022;-45
2023/07/30 05:01:18;;;;;;;6.53;4.07;;;;;;;;;;4992980;28;20049;-47
2023/07/30 05:03:43;;;;;;;6.80;3.83;;;;;;;;;;5008423;28;20121;-45
2023/07/30 05:06:09;;;;;;;8.32;4.07;;;;;;;;;;4978782;28;20048;-45
2023/07/30 05:08:34;;;;;;;4.90;3.70;;;;;;;;;;4985937;28;20041;-45
2023/07/30 05:10:59;;;;;;;4.03;3.63;;;;;;;;;;4990575;28;20066;-44
2023/07/30 05:13:25;;;;;;;5.47;3.38;;;;;;;;;;4967370;28;20130;-46
2023/07/30 05:15:50;;;;;;;5.80;3.58;;;;;;;;;;4990425;28;20114;-47
2023/07/30 05:18:16;;;;;;;5.45;3.45;;;;;;;;;;4992960;28;20031;-44
2023/07/30 05:20:41;;;;;;;7.43;4.18;;;;;;;;;;4995141;28;20038;-47
2023/07/30 05:23:06;;;;;;;3.70;3.40;;;;;;;;;;4995014;28;20062;-45
2023/07/30 05:25:32;;;;;;;5.68;3.60;;;;;;;;;;4977512;28;20030;-45
2023/07/30 05:27:58;;;;;;;5.15;3.60;;;;;;;;;;4993905;28;20037;-46
2023/07/30 05:30:23;;;;;;;6.88;4.00;;;;;;;;;;4986550;28;20042;-48
2023/07/30 05:32:49;;;;;;;7.63;3.72;;;;;;;;;;4994958;28;20140;-45
2023/07/30 05:35:14;;;;;;;6.53;3.42;;;;;;;;;;4994290;28;20043;-46
2023/07/30 05:37:40;;;;;;;6.35;3.75;;;;;;;;;;4979206;28;20026;-44
2023/07/30 05:40:06;;;;;;;3.80;3.40;;;;;;;;;;4988002;28;20069;-46
2023/07/30 05:42:32;;;;;;;5.05;3.67;;;;;;;;;;4992343;28;20041;-45
2023/07/30 05:44:57;;;;;;;4.93;3.70;;;;;;;;;;4990711;28;20060;-45
2023/07/30 05:47:23;;;;;;;6.78;4.00;;;;;;;;;;4977421;28;20107;-46
2023/07/30 05:49:48;;;;;;;6.38;3.72;;;;;;;;;;4984510;28;20427;-44
2023/07/30 05:52:13;;;;;;;3.85;3.45;;;;;;;;;;4989558;28;20026;-44
2023/07/30 05:54:39;;;;;;;7.32;3.30;;;;;;;;;;4995612;28;20030;-46
2023/07/30 05:57:04;;;;;;;5.85;4.07;;;;;;;;;;4978348;28;20035;-44
2023/07/30 05:59:30;;;;;;;3.67;3.38;;;;;;;;;;4977416;28;20077;-46
2023/07/30 06:01:57;;;;;;;3.67;3.22;;;;;;;;;;4991072;28;20046;-47
2023/07/30 06:04:23;;;;;;;4.03;3.58;;;;;;;;;;4991195;28;20028;-45
2023/07/30 06:06:48;;;;;;;3.33;3.03;;;;;;;;;;4990579;28;20042;-45
2023/07/30 06:09:14;;;;;;;7.43;3.65;;;;;;;;;;4990292;28;20031;-48
2023/07/30 06:11:39;;;;;;;4.53;3.40;;;;;;;;;;4975436;28;20042;-48
2023/07/30 06:14:04;;;;;;;4.10;3.03;;;;;;;;;;4953579;28;20041;-45
2023/07/30 06:16:30;;;;;;;3.78;2.88;;;;;;;;;;4983258;28;20061;-46
2023/07/30 06:18:55;;;;;;;3.30;3.00;;;;;;;;;;4993891;28;20030;-45
2023/07/30 06:21:20;;;;;;;6.18;3.45;;;;;;;;;;4988622;28;20047;-46
2023/07/30 06:23:46;;;;;;;3.15;2.88;;;;;;;;;;4988916;28;20054;-45
2023/07/30 06:26:11;;;;;;;3.85;2.85;;;;;;;;;;4984770;28;20046;-47
2023/07/30 06:28:37;;;;;;;5.03;2.53;;;;;;;;;;4983264;28;20025;-46
2023/07/30 06:31:02;;;;;;;3.83;2.55;;;;;;;;;;4980237;28;20093;-46
2023/07/30 06:33:28;;;;;;;3.15;2.40;;;;;;;;;;4983049;28;20049;-46
2023/07/30 06:35:53;;;;;;;2.88;2.60;;;;;;;;;;4990764;28;20050;-45
2023/07/30 06:38:18;;;;;;;2.38;2.17;;;;;;;;;;4976850;28;20527;-45
2023/07/30 06:40:44;;;;;;;2.42;2.22;;;;;;;;;;5005541;28;20173;-47
2023/07/30 06:43:09;;;;;;;2.72;1.85;;;;;;;;;;5012074;28;20030;-48
2023/07/30 06:45:34;;;;;;;2.20;2.10;;;;;;;;;;4996481;28;20042;-46
2023/07/30 06:48:00;;;;;;;5.07;2.38;;;;;;;;;;4998749;28;20038;-45
2023/07/30 06:50:25;;;;;;;2.15;2.05;;;;;;;;;;4996195;28;20088;-45
2023/07/30 06:52:51;;;;;;;4.22;2.40;;;;;;;;;;4979183;28;20033;-49
2023/07/30 06:55:16;;;;;;;2.95;2.25;;;;;;;;;;4997681;28;20401;-45
2023/07/30 06:57:42;;;;;;;3.63;2.45;;;;;;;;;;4995046;28;20489;-46
2023/07/30 07:00:08;;;;;;;2.45;2.25;;;;;;;;;;4980193;28;20142;-46
2023/07/30 07:02:33;;;;;;;2.22;2.13;;;;;;;;;;4992057;28;20042;-51
2023/07/30 07:04:59;;;;;;;2.10;2.00;;;;;;;;;;4990748;28;20469;-45
2023/07/30 07:07:24;;;;;;;2.20;1.98;;;;;;;;;;4982053;28;20026;-45
2023/07/30 07:09:50;;;;;;;4.38;2.00;;;;;;;;;;4984589;28;20495;-47
2023/07/30 07:12:15;;;;;;;1.95;1.85;;;;;;;;;;4979702;28;20369;-46
2023/07/30 07:14:42;;;;;;;2.30;2.20;;;;;;;;;;4996859;28;20030;-45
2023/07/30 07:17:08;;;;;;;2.50;2.30;;;;;;;;;;4996709;28;20041;-46
2023/07/30 07:19:36;;;;;;;1.90;1.80;;;;;;;;;;4990237;28;20026;-46
2023/07/30 07:22:05;;;;;;;1.98;1.85;;;;;;;;;;4995842;28;20061;-46
2023/07/30 07:24:31;;;;;;;5.72;2.35;;;;;;;;;;4997400;28;20183;-45
2023/07/30 07:26:56;;;;;;;2.08;1.88;;;;;;;;;;4995307;28;20074;-48
2023/07/30 07:29:22;;;;;;;3.90;2.10;;;;;;;;;;4993347;28;20040;-46
2023/07/30 07:31:47;;;;;;;2.13;1.92;;;;;;;;;;4987867;28;20046;-45
2023/07/30 07:34:13;;;;;;;2.90;2.13;;;;;;;;;;4978677;28;20061;-46
2023/07/30 07:36:38;;;;;;;3.08;1.63;;;;;;;;;;4987877;28;20046;-46
2023/07/30 07:39:04;;;;;;;1.80;1.70;;;;;;;;;;4995470;28;20023;-45
2023/07/30 07:41:29;;;;;;;1.70;1.60;;;;;;;;;;4993987;28;20042;-47
2023/07/30 07:43:55;;;;;;;1.70;1.60;;;;;;;;;;4996133;28;20519;-45
2023/07/30 07:46:20;;;;;;;2.15;1.75;;;;;;;;;;4982998;28;20043;-45
2023/07/30 07:48:45;;;;;;;3.00;1.83;;;;;;;;;;4990220;28;20036;-46
2023/07/30 07:51:11;;;;;;;1.60;1.50;;;;;;;;;;4983817;28;20052;-46
2023/07/30 07:53:37;;;;;;;2.13;1.60;;;;;;;;;;4996865;28;20034;-45
2023/07/30 07:56:03;;;;;;;1.75;1.65;;;;;;;;;;4989554;28;20070;-45
2023/07/30 07:58:29;;;;;;;2.58;1.90;;;;;;;;;;4990552;28;20460;-45
2023/07/30 08:00:55;;;;;;;2.03;1.80;;;;;;;;;;4988061;28;20492;-45
2023/07/30 08:03:21;;;;;;;2.10;1.90;;;;;;;;;;4995415;28;20037;-45
2023/07/30 08:05:46;;;;;;;3.08;1.98;;;;;;;;;;4983399;28;20039;-47
2023/07/30 08:08:12;;;;;;;3.17;1.85;;;;;;;;;;5005799;28;20037;-48
2023/07/30 08:10:46;;;;;;;5.35;2.00;;;;;;;;;;4996372;28;20042;-46
2023/07/30 08:13:12;;;;;;;2.38;2.03;;;;;;;;;;4988831;28;20034;-44
2023/07/30 08:15:37;;;;;;;2.03;1.92;;;;;;;;;;4994988;28;20100;-45
2023/07/30 08:18:03;;;;;;;1.80;1.70;;;;;;;;;;4995936;28;20492;-45
2023/07/30 08:20:28;;;;;;;1.63;1.40;;;;;;;;;;4978067;28;20027;-48
2023/07/30 08:22:54;;;;;;;5.03;1.65;;;;;;;;;;4983758;28;20037;-47
2023/07/30 08:25:20;;;;;;;1.98;1.88;;;;;;;;;;4987169;28;20034;-45
2023/07/30 08:27:45;;;;;;;2.67;1.60;;;;;;;;;;4990112;28;20051;-45
2023/07/30 08:30:11;;;;;;;1.75;1.65;;;;;;;;;;4989976;28;20070;-48
2023/07/30 08:32:37;;;;;;;4.15;1.98;;;;;;;;;;4990373;28;20045;-46
2023/07/30 08:35:03;;;;;;;2.80;1.67;;;;;;;;;;4988854;28;20548;-47
2023/07/30 08:37:28;;;;;;;2.35;1.90;;;;;;;;;;4990724;28;20018;-46
2023/07/30 08:39:54;;;;;;;3.63;1.52;;;;;;;;;;4996864;28;20022;-47
2023/07/30 08:42:19;;;;;;;6.25;1.80;;;;;;;;;;4984220;28;20026;-45
2023/07/30 08:44:45;;;;;;;1.40;1.30;;;;;;;;;;4991107;28;20030;-43
2023/07/30 08:47:11;;;;;;;1.50;1.40;;;;;;;;;;4986870;28;20090;-47
2023/07/30 08:49:36;;;;;;;2.40;1.60;;;;;;;;;;4980928;28;20481;-45
2023/07/30 08:52:03;;;;;;;2.42;1.65;;;;;;;;;;4994603;28;20031;-45
2023/07/30 08:54:30;;;;;;;1.55;1.45;;;;;;;;;;4996964;28;20533;-46
2023/07/30 08:56:57;;;;;;;1.52;1.48;;;;;;;;;;4996149;28;20041;-47
2023/07/30 08:59:24;;;;;;;1.67;1.50;;;;;;;;;;4995636;28;20030;-48
2023/07/30 09:01:51;;;;;;;1.63;1.52;;;;;;;;;;4991059;28;20042;-46
2023/07/30 09:04:18;;;;;;;5.03;1.75;;;;;;;;;;4993964;28;20042;-47
2023/07/30 09:06:47;;;;;;;1.70;1.60;;;;;;;;;;5001954;28;20035;-45
2023/07/30 09:09:13;;;;;;;1.70;1.60;;;;;;;;;;4989286;28;20088;-46
2023/07/30 09:11:39;;;;;;;1.65;1.55;;;;;;;;;;4991379;28;20405;-46
2023/07/30 09:14:06;;;;;;;2.35;1.60;;;;;;;;;;4995015;28;20030;-48
2023/07/30 09:16:31;;;;;;;2.10;1.90;;;;;;;;;;4993002;28;20034;-49
2023/07/30 09:18:57;;;;;;;2.28;1.58;;;;;;;;;;4996782;28;20033;-45
2023/07/30 09:21:30;;;;;;;4.65;1.40;;;;;;;;;;4977032;28;20512;-46
2023/07/30 09:23:56;;;;;;;1.80;1.70;;;;;;;;;;4995854;28;20034;-45
2023/07/30 09:26:22;;;;;;;2.28;1.30;;;;;;;;;;4990778;28;20050;-45
2023/07/30 09:28:47;;;;;;;1.45;1.35;;;;;;;;;;4993553;28;20037;-45
2023/07/30 09:31:13;;;;;;;4.63;1.63;;;;;;;;;;4994284;28;20053;-48
2023/07/30 09:33:41;;;;;;;1.58;1.48;;;;;;;;;;4975739;28;20073;-45
2023/07/30 09:36:09;;;;;;;3.42;1.48;;;;;;;;;;4991385;28;20042;-49
2023/07/30 09:38:44;;;;;;;2.83;1.25;;;;;;;;;;4983242;28;20461;-46
2023/07/30 09:41:11;;;;;;;5.43;1.48;;;;;;;;;;4984483;28;20038;-48
2023/07/30 09:43:37;;;;;;;1.20;1.20;;;;;;;;;;4994591;28;20445;-47
2023/07/30 09:46:03;;;;;;;5.63;1.40;;;;;;;;;;4983522;28;20059;-47
2023/07/30 09:48:31;;;;;;;1.33;1.23;;;;;;;;;;5003296;28;20034;-47
2023/07/30 09:51:02;;;;;;;1.38;1.27;;;;;;;;;;4991424;28;20436;-51
2023/07/30 09:53:35;;;;;;;2.65;1.40;;;;;;;;;;4976253;28;20031;-46
2023/07/30 09:56:02;;;;;;;3.20;1.63;;;;;;;;;;4985365;28;20031;-45
2023/07/30 09:58:28;;;;;;;2.05;1.10;;;;;;;;;;4988046;28;20552;-49
2023/07/30 10:00:55;;;;;;;1.30;1.20;;;;;;;;;;4998161;28;20046;-44
2023/07/30 10:03:21;;;;;;;1.20;1.10;;;;;;;;;;4995137;28;20481;-48
2023/07/30 10:05:47;;;;;;;0.88;0.88;;;;;;;;;;4982479;28;20113;-47
2023/07/30 10:08:21;;;;;;;1.25;1.25;;;;;;;;;;4993073;28;20029;-45
2023/07/30 10:10:48;;;;;;;1.30;1.20;;;;;;;;;;4994290;28;20054;-47
2023/07/30 10:13:14;;;;;;;1.30;1.20;;;;;;;;;;4994799;28;20101;-49
2023/07/30 10:15:40;;;;;;;1.15;1.15;;;;;;;;;;4997907;28;20065;-49
2023/07/30 10:18:05;;;;;;;1.38;1.27;;;;;;;;;;4997966;28;20038;-46
2023/07/30 10:20:31;;;;;;;1.25;1.20;;;;;;;;;;4988742;28;20039;-51
2023/07/30 10:23:01;;;;;;;1.40;1.30;;;;;;;;;;4986073;28;20030;-47
2023/07/30 10:25:51;;;;;;;2.03;1.38;;;;;;;;;;4995330;28;20097;-46
2023/07/30 10:28:29;;;;;;;2.53;1.50;;;;;;;;;;4988392;28;20049;-45
2023/07/30 10:31:08;;;;;;;1.42;1.30;;;;;;;;;;4998564;28;20046;-50
2023/07/30 10:33:49;;;;;;;1.75;1.65;;;;;;;;;;4997142;28;20380;-47
2023/07/30 10:36:18;;;;;;;1.42;1.40;;;;;;;;;;4995239;28;20050;-46
2023/07/30 10:38:44;;;;;;;1.50;1.40;;;;;;;;;;4999189;28;20029;-46
2023/07/30 10:41:12;;;;;;;1.95;1.85;;;;;;;;;;4996186;28;20034;-50
2023/07/30 10:43:48;;;;;;;1.85;1.75;;;;;;;;;;4987706;28;20036;-46
2023/07/30 10:46:19;;;;;;;1.73;1.63;;;;;;;;;;4998843;28;20054;-46
2023/07/30 10:48:47;;;;;;;1.65;1.42;;;;;;;;;;4987770;28;20126;-47
2023/07/30 10:51:15;;;;;;;2.40;1.67;;;;;;;;;;4995952;28;20034;-47
2023/07/30 10:53:45;;;;;;;2.20;2.10;;;;;;;;;;4997076;28;20110;-48
2023/07/30 10:56:11;;;;;;;3.88;2.05;;;;;;;;;;4998020;28;20376;-48
2023/07/30 10:58:37;;;;;;;3.17;2.38;;;;;;;;;;4997438;28;20030;-49
2023/07/30 11:01:07;;;;;;;1.98;1.88;;;;;;;;;;4998280;28;20116;-50
2023/07/30 11:03:34;;;;;;;2.30;1.90;;;;;;;;;;4992820;28;20022;-46
2023/07/30 11:06:00;;;;;;;2.22;2.13;;;;;;;;;;4996874;28;20042;-46
2023/07/30 11:08:42;;;;;;;2.17;2.03;;;;;;;;;;4989984;28;20026;-46
2023/07/30 11:11:10;;;;;;;5.55;2.00;;;;;;;;;;4995491;28;20046;-50
2023/07/30 11:13:40;;;;;;;2.17;1.92;;;;;;;;;;4979576;28;20030;-48
2023/07/30 11:16:09;;;;;;;3.88;1.85;;;;;;;;;;4991414;28;20575;-52
2023/07/30 11:18:36;;;;;;;2.10;1.98;;;;;;;;;;4990734;28;20031;-49
2023/07/30 11:21:03;;;;;;;1.77;1.67;;;;;;;;;;4980424;28;20526;-46
2023/07/30 11:23:29;;;;;;;2.85;2.10;;;;;;;;;;4980158;28;20057;-51
2023/07/30 11:25:54;;;;;;;2.00;1.90;;;;;;;;;;4990501;28;20043;-47
2023/07/30 11:28:33;;;;;;;3.70;1.67;;;;;;;;;;4979481;28;20057;-46
2023/07/30 11:31:00;;;;;;;2.92;1.92;;;;;;;;;;4998487;28;20039;-47
2023/07/30 11:33:27;;;;;;;1.83;1.73;;;;;;;;;;4998179;28;20361;-52
2023/07/30 11:35:53;;;;;;;2.28;1.70;;;;;;;;;;4991290;28;20053;-47
2023/07/30 11:38:19;;;;;;;1.95;1.77;;;;;;;;;;4996515;28;20032;-49
2023/07/30 11:40:46;;;;;;;2.30;1.90;;;;;;;;;;4990187;28;20126;-46
2023/07/30 11:43:12;;;;;;;2.17;1.90;;;;;;;;;;5007794;28;20035;-52
2023/07/30 11:45:38;;;;;;;3.13;2.17;;;;;;;;;;4996593;28;20085;-47
2023/07/30 11:48:08;;;;;;;2.17;2.00;;;;;;;;;;4984886;28;20030;-49
2023/07/30 11:50:51;;;;;;;5.03;2.05;;;;;;;;;;4996059;28;20130;-49
2023/07/30 11:53:17;;;;;;;3.42;2.05;;;;;;;;;;4994532;28;20045;-49
2023/07/30 11:55:44;;;;;;;2.33;2.13;;;;;;;;;;4996073;28;20038;-45
2023/07/30 11:58:10;;;;;;;1.85;1.75;;;;;;;;;;4991471;28;20026;-50
2023/07/30 12:00:41;;;;;;;2.42;2.22;;;;;;;;;;4990885;28;20030;-48
2023/07/30 12:03:12;;;;;;;4.87;1.83;;;;;;;;;;4983577;28;20030;-47
2023/07/30 12:05:38;;;;;;;;;;;;;;;;;;4983314;28;20039;-45
2023/07/30 12:08:07;;;;;;;2.20;1.80;;;;;;;;;;4994327;28;19910;-47
2023/07/30 12:10:43;;;;;;;2.10;1.73;;;;;;;;;;4976564;28;20047;-46
2023/07/30 12:13:14;;;;;;;3.25;1.65;;;;;;;;;;5001758;28;20548;-49
2023/07/30 12:15:52;;;;;;;2.42;1.85;;;;;;;;;;4997466;28;20023;-46
2023/07/30 12:18:18;;;;;;;2.25;2.05;;;;;;;;;;4996301;28;20041;-47
2023/07/30 12:20:44;;;;;;;3.10;2.38;;;;;;;;;;4996826;28;20109;-46
2023/07/30 12:23:09;;;;;;;1.98;1.77;;;;;;;;;;4993808;28;20054;-47
2023/07/30 12:25:35;;;;;;;1.98;1.80;;;;;;;;;;4996846;28;20512;-51
2023/07/30 12:28:00;;;;;;;2.00;1.90;;;;;;;;;;4996234;28;20022;-49
2023/07/30 12:30:27;;;;;;;2.88;2.67;;;;;;;;;;4996773;28;20045;-47
2023/07/30 12:32:53;;;;;;;1.58;1.48;;;;;;;;;;4993463;28;20085;-49
2023/07/30 12:35:18;;;;;;;1.90;1.70;;;;;;;;;;4993219;28;20516;-51
2023/07/30 12:37:44;;;;;;;1.80;1.70;;;;;;;;;;4989026;28;20060;-48
2023/07/30 12:40:09;;;;;;;3.08;2.00;;;;;;;;;;4987929;28;20038;-49
2023/07/30 12:42:35;;;;;;;1.85;1.75;;;;;;;;;;4997708;28;20085;-46
2023/07/30 12:45:00;;;;;;;2.25;1.80;;;;;;;;;;4975713;28;20039;-47
2023/07/30 12:47:25;;;;;;;1.63;1.52;;;;;;;;;;4991955;28;20058;-49
2023/07/30 12:49:51;;;;;;;1.65;1.55;;;;;;;;;;4977595;28;20066;-50
2023/07/30 12:52:16;;;;;;;1.92;1.83;;;;;;;;;;4993237;28;20030;-47
2023/07/30 12:54:42;;;;;;;2.10;1.90;;;;;;;;;;4987152;28;20034;-49
2023/07/30 12:57:07;;;;;;;1.77;1.67;;;;;;;;;;4992788;28;20033;-48
2023/07/30 12:59:32;;;;;;;4.53;4.18;;;;;;;;;;4994855;28;20030;-46
2023/07/30 13:01:58;;;;;;;3.85;2.60;;;;;;;;;;4993926;28;20523;-50
2023/07/30 13:04:27;;;;;;;1.95;1.73;;;;;;;;;;4989479;28;20026;-52
2023/07/30 13:06:53;;;;;;;3.08;1.48;;;;;;;;;;4977997;28;20504;-48
2023/07/30 13:09:19;;;;;;;2.55;1.75;;;;;;;;;;4988045;28;20054;-47
2023/07/30 13:11:44;;;;;;;2.35;1.90;;;;;;;;;;4993839;28;20034;-47
2023/07/30 13:14:09;;;;;;;1.95;1.65;;;;;;;;;;4989332;28;20038;-49
2023/07/30 13:16:35;;;;;;;1.88;1.77;;;;;;;;;;4995049;28;20042;-47
2023/07/30 13:19:00;;;;;;;1.83;1.73;;;;;;;;;;4991788;28;20042;-49
2023/07/30 13:21:26;;;;;;;1.52;1.40;;;;;;;;;;4992064;28;20461;-47
2023/07/30 13:23:51;;;;;;;2.08;1.80;;;;;;;;;;4989623;28;20042;-46
2023/07/30 13:26:18;;;;;;;1.85;1.75;;;;;;;;;;4995031;28;20046;-50
2023/07/30 13:28:43;;;;;;;4.72;1.60;;;;;;;;;;4994718;28;20088;-47
2023/07/30 13:31:09;;;;;;;1.70;1.60;;;;;;;;;;4994389;28;20050;-47
2023/07/30 13:33:34;;;;;;;1.70;1.60;;;;;;;;;;4996604;28;20026;-50
2023/07/30 13:36:00;;;;;;;1.73;1.63;;;;;;;;;;4993626;28;20084;-46
2023/07/30 13:38:26;;;;;;;1.70;1.60;;;;;;;;;;4996651;28;20358;-48
2023/07/30 13:40:52;;;;;;;1.63;1.52;;;;;;;;;;4993590;28;20266;-46
2023/07/30 13:43:17;;;;;;;3.80;1.80;;;;;;;;;;4990197;28;20392;-48
2023/07/30 13:45:43;;;;;;;1.45;1.40;;;;;;;;;;4995572;28;20030;-45
2023/07/30 13:48:09;;;;;;;2.20;1.70;;;;;;;;;;4995969;28;20023;-46
2023/07/30 13:50:35;;;;;;;2.10;1.65;;;;;;;;;;4996687;28;20038;-50
2023/07/30 13:53:00;;;;;;;1.90;1.80;;;;;;;;;;4989453;28;20042;-45
2023/07/30 13:55:25;;;;;;;1.38;1.38;;;;;;;;;;4986182;28;20050;-49
2023/07/30 13:57:51;;;;;;;1.60;1.50;;;;;;;;;;4984844;28;20029;-47
2023/07/30 14:00:16;;;;;;;1.73;1.63;;;;;;;;;;4997985;28;20042;-47
2023/07/30 14:02:42;;;;;;;3.50;1.55;;;;;;;;;;4999694;28;20026;-47
2023/07/30 14:05:09;;;;;;;1.50;1.50;;;;;;;;;;4989647;28;20042;-45
2023/07/30 14:07:35;;;;;;;1.80;1.70;;;;;;;;;;4986151;28;20101;-47
2023/07/30 14:10:00;;;;;;;3.13;1.60;;;;;;;;;;4994112;28;20073;-50
2023/07/30 14:12:26;;;;;;;1.88;1.70;;;;;;;;;;4999907;28;20026;-47
2023/07/30 14:14:51;;;;;;;4.63;1.90;;;;;;;;;;4977220;28;20480;-47
2023/07/30 14:17:17;;;;;;;1.83;1.73;;;;;;;;;;4999953;28;20408;-45
2023/07/30 14:19:42;;;;;;;1.85;1.52;;;;;;;;;;4997706;28;20030;-46
2023/07/30 14:22:08;;;;;;;1.90;1.80;;;;;;;;;;4996396;28;20081;-46
2023/07/30 14:24:34;;;;;;;2.15;1.80;;;;;;;;;;4998317;28;20028;-46
2023/07/30 14:26:59;;;;;;;1.83;1.73;;;;;;;;;;4994226;28;20042;-46
2023/07/30 14:29:25;;;;;;;1.85;1.75;;;;;;;;;;4999084;28;20488;-47
2023/07/30 14:31:50;;;;;;;2.17;1.92;;;;;;;;;;4995792;28;20164;-49
2023/07/30 14:34:16;;;;;;;1.67;1.58;;;;;;;;;;4986076;28;20067;-49
2023/07/30 14:36:42;;;;;;;3.97;1.80;;;;;;;;;;4999552;28;20050;-47